San Ysidro, California
Current Conditions -  °F | °C
As of 2:53 PM on Tuesday 27 Jan 2015 (Local Time) from KSDM Reporting Station
Clear Clear  
Wind Chill: 69°   Ceiling: Unl
Heat Index: 69°   Visibility: 10mi
Dew Point: 46°   Wind: 10mph
Humidity: 44%   Direction: 280°W
Pressure: 30.14"   Gusts: NA
Location:  32.55°N, 117.04°W
Report Text: KSDM 272253Z 28009KT 10SM CLR 21/08 A3014 RMK AO2 SLP204 T02060078
Loading
Personal Weather Stations






























Interactive Weather Map New forecast layout! Learn more

10-Day Weather Forecast

Advertisements
Track Severe Weather on mobile